sensor_id;sensor_type;location;lat;lon;timestamp;P1;P4;P2;P0;N10;N4;N25;N1;N05;TS
44530;SPS30;30240;47.418;0.700;2023-02-11T00:01:48;66.40222;;65.58174;;;;;;;
44530;SPS30;30240;47.418;0.700;2023-02-11T00:04:13;66.40222;;65.58174;;;;;;;
44530;SPS30;30240;47.418;0.700;2023-02-11T00:06:38;66.10238;;65.54911;;;;;;;
44530;SPS30;30240;47.418;0.700;2023-02-11T00:09:04;65.73778;;65.388664;;;;;;;
44530;SPS30;30240;47.418;0.700;2023-02-11T00:11:28;64.93567;;64.66729;;;;;;;
44530;SPS30;30240;47.418;0.700;2023-02-11T00:13:54;64.74283;;64.388374;;;;;;;
44530;SPS30;30240;47.418;0.700;2023-02-11T00:16:19;64.74283;;64.388374;;;;;;;
44530;SPS30;30240;47.418;0.700;2023-02-11T00:18:44;66.95329;;66.648186;;;;;;;
44530;SPS30;30240;47.418;0.700;2023-02-11T00:21:09;65.49736;;64.82332;;;;;;;
44530;SPS30;30240;47.418;0.700;2023-02-11T00:23:34;66.93992;;66.375114;;;;;;;
44530;SPS30;30240;47.418;0.700;2023-02-11T00:25:58;65.19249;;64.65035;;;;;;;
44530;SPS30;30240;47.418;0.700;2023-02-11T00:28:24;65.19249;;64.65035;;;;;;;
44530;SPS30;30240;47.418;0.700;2023-02-11T00:30:52;65.91631;;65.47233;;;;;;;
44530;SPS30;30240;47.418;0.700;2023-02-11T00:33:13;72.04936;;71.85923;;;;;;;
44530;SPS30;30240;47.418;0.700;2023-02-11T00:35:38;67.552986;;67.26163;;;;;;;
44530;SPS30;30240;47.418;0.700;2023-02-11T00:38:03;63.072937;;62.193264;;;;;;;
44530;SPS30;30240;47.418;0.700;2023-02-11T00:40:28;66.04641;;65.74249;;;;;;;
44530;SPS30;30240;47.418;0.700;2023-02-11T00:42:53;66.04641;;65.74249;;;;;;;
44530;SPS30;30240;47.418;0.700;2023-02-11T00:45:19;65.73747;;65.46715;;;;;;;
44530;SPS30;30240;47.418;0.700;2023-02-11T00:47:43;61.627872;;61.45001;;;;;;;
44530;SPS30;30240;47.418;0.700;2023-02-11T00:50:08;60.64512;;60.254356;;;;;;;
44530;SPS30;30240;47.418;0.700;2023-02-11T00:52:33;64.87532;;64.22615;;;;;;;
44530;SPS30;30240;47.418;0.700;2023-02-11T00:54:58;64.87532;;64.22615;;;;;;;
44530;SPS30;30240;47.418;0.700;2023-02-11T00:57:23;62.157085;;61.871452;;;;;;;
44530;SPS30;30240;47.418;0.700;2023-02-11T00:59:49;59.45027;;58.97425;;;;;;;
44530;SPS30;30240;47.418;0.700;2023-02-11T01:02:13;62.415253;;62.033535;;;;;;;
44530;SPS30;30240;47.418;0.700;2023-02-11T01:04:38;65.3166;;65.148254;;;;;;;
44530;SPS30;30240;47.418;0.700;2023-02-11T01:07:03;65.3166;;65.148254;;;;;;;
44530;SPS30;30240;47.418;0.700;2023-02-11T01:09:28;60.825905;;60.449203;;;;;;;
44530;SPS30;30240;47.418;0.700;2023-02-11T01:11:53;61.837135;;61.19108;;;;;;;
44530;SPS30;30240;47.418;0.700;2023-02-11T01:14:18;56.70045;;56.355858;;;;;;;
44530;SPS30;30240;47.418;0.700;2023-02-11T01:16:44;59.590603;;58.89163;;;;;;;
44530;SPS30;30240;47.418;0.700;2023-02-11T01:19:08;59.590603;;58.89163;;;;;;;
44530;SPS30;30240;47.418;0.700;2023-02-11T01:21:33;60.815437;;60.060482;;;;;;;
44530;SPS30;30240;47.418;0.700;2023-02-11T01:23:58;57.065907;;56.791927;;;;;;;
44530;SPS30;30240;47.418;0.700;2023-02-11T01:26:23;63.689808;;63.38673;;;;;;;
44530;SPS30;30240;47.418;0.700;2023-02-11T01:28:48;66.84835;;65.40644;;;;;;;
44530;SPS30;30240;47.418;0.700;2023-02-11T01:31:13;66.84835;;65.40644;;;;;;;
44530;SPS30;30240;47.418;0.700;2023-02-11T01:33:38;62.081795;;61.28426;;;;;;;
44530;SPS30;30240;47.418;0.700;2023-02-11T01:36:04;61.36239;;60.98186;;;;;;;
44530;SPS30;30240;47.418;0.700;2023-02-11T01:38:29;62.56226;;61.75178;;;;;;;
44530;SPS30;30240;47.418;0.700;2023-02-11T01:40:56;64.79877;;64.204895;;;;;;;
44530;SPS30;30240;47.418;0.700;2023-02-11T01:43:19;64.79877;;64.204895;;;;;;;
44530;SPS30;30240;47.418;0.700;2023-02-11T01:45:57;67.18568;;65.91902;;;;;;;
44530;SPS30;30240;47.418;0.700;2023-02-11T01:48:09;65.33959;;64.91045;;;;;;;
44530;SPS30;30240;47.418;0.700;2023-02-11T01:50:33;65.73874;;65.65832;;;;;;;
44530;SPS30;30240;47.418;0.700;2023-02-11T01:52:59;62.531082;;62.208427;;;;;;;
44530;SPS30;30240;47.418;0.700;2023-02-11T01:55:24;62.531082;;62.208427;;;;;;;
44530;SPS30;30240;47.418;0.700;2023-02-11T01:57:50;64.97079;;64.86367;;;;;;;
44530;SPS30;30240;47.418;0.700;2023-02-11T02:00:14;71.193634;;70.17775;;;;;;;
44530;SPS30;30240;47.418;0.700;2023-02-11T02:02:40;65.50057;;64.5563;;;;;;;
44530;SPS30;30240;47.418;0.700;2023-02-11T02:05:05;67.14395;;66.26402;;;;;;;
44530;SPS30;30240;47.418;0.700;2023-02-11T02:07:31;67.14395;;66.26402;;;;;;;
44530;SPS30;30240;47.418;0.700;2023-02-11T02:09:58;63.232265;;62.514816;;;;;;;
44530;SPS30;30240;47.418;0.700;2023-02-11T02:10:01;63.232265;;62.514816;;;;;;;
44530;SPS30;30240;47.418;0.700;2023-02-11T02:12:18;64.36367;;63.53222;;;;;;;
44530;SPS30;30240;47.418;0.700;2023-02-11T02:14:44;66.51256;;65.450554;;;;;;;
44530;SPS30;30240;47.418;0.700;2023-02-11T02:17:09;64.38925;;63.789753;;;;;;;
44530;SPS30;30240;47.418;0.700;2023-02-11T02:17:16;64.38925;;63.789753;;;;;;;
44530;SPS30;30240;47.418;0.700;2023-02-11T02:17:24;64.38925;;63.789753;;;;;;;
44530;SPS30;30240;47.418;0.700;2023-02-11T02:19:41;62.298847;;61.09087;;;;;;;
44530;SPS30;30240;47.418;0.700;2023-02-11T02:19:51;62.298847;;61.09087;;;;;;;
44530;SPS30;30240;47.418;0.700;2023-02-11T02:24:38;62.25908;;61.77404;;;;;;;
44530;SPS30;30240;47.418;0.700;2023-02-11T02:24:47;62.25908;;61.77404;;;;;;;
44530;SPS30;30240;47.418;0.700;2023-02-11T02:24:54;62.25908;;61.77404;;;;;;;
44530;SPS30;30240;47.418;0.700;2023-02-11T02:26:54;62.60944;;62.448685;;;;;;;
44530;SPS30;30240;47.418;0.700;2023-02-11T02:27:02;62.60944;;62.448685;;;;;;;
44530;SPS30;30240;47.418;0.700;2023-02-11T02:29:18;61.20197;;60.68325;;;;;;;
44530;SPS30;30240;47.418;0.700;2023-02-11T02:31:41;59.175575;;58.58086;;;;;;;
44530;SPS30;30240;47.418;0.700;2023-02-11T02:31:53;59.175575;;58.58086;;;;;;;
44530;SPS30;30240;47.418;0.700;2023-02-11T02:32:18;59.175575;;58.58086;;;;;;;
44530;SPS30;30240;47.418;0.700;2023-02-11T02:34:05;59.175575;;58.58086;;;;;;;
44530;SPS30;30240;47.418;0.700;2023-02-11T02:36:30;60.35803;;59.742302;;;;;;;
44530;SPS30;30240;47.418;0.700;2023-02-11T02:38:54;60.954132;;60.28795;;;;;;;
44530;SPS30;30240;47.418;0.700;2023-02-11T02:41:20;59.408142;;59.21624;;;;;;;
44530;SPS30;30240;47.418;0.700;2023-02-11T02:43:44;63.174355;;62.549637;;;;;;;
44530;SPS30;30240;47.418;0.700;2023-02-11T02:46:09;63.174355;;62.549637;;;;;;;
44530;SPS30;30240;47.418;0.700;2023-02-11T02:48:33;61.215206;;60.33593;;;;;;;
44530;SPS30;30240;47.418;0.700;2023-02-11T02:51:01;58.316643;;57.77422;;;;;;;
44530;SPS30;30240;47.418;0.700;2023-02-11T02:53:25;56.317123;;55.914017;;;;;;;
44530;SPS30;30240;47.418;0.700;2023-02-11T02:53:31;56.317123;;55.914017;;;;;;;
44530;SPS30;30240;47.418;0.700;2023-02-11T02:55:51;56.41841;;56.12806;;;;;;;
44530;SPS30;30240;47.418;0.700;2023-02-11T02:58:19;56.41841;;56.12806;;;;;;;
44530;SPS30;30240;47.418;0.700;2023-02-11T02:58:28;56.41841;;56.12806;;;;;;;
44530;SPS30;30240;47.418;0.700;2023-02-11T03:00:40;56.98274;;56.779507;;;;;;;
44530;SPS30;30240;47.418;0.700;2023-02-11T03:03:07;57.2494;;56.87025;;;;;;;
44530;SPS30;30240;47.418;0.700;2023-02-11T03:05:29;55.20619;;54.71823;;;;;;;
44530;SPS30;30240;47.418;0.700;2023-02-11T03:07:55;59.519234;;58.831104;;;;;;;
44530;SPS30;30240;47.418;0.700;2023-02-11T03:10:20;59.519234;;58.831104;;;;;;;
44530;SPS30;30240;47.418;0.700;2023-02-11T03:12:44;57.08769;;57.0845;;;;;;;
44530;SPS30;30240;47.418;0.700;2023-02-11T03:15:08;62.210926;;61.70705;;;;;;;
44530;SPS30;30240;47.418;0.700;2023-02-11T03:17:34;60.033638;;59.791573;;;;;;;
44530;SPS30;30240;47.418;0.700;2023-02-11T03:19:59;58.157654;;57.214;;;;;;;
44530;SPS30;30240;47.418;0.700;2023-02-11T03:22:24;58.157654;;57.214;;;;;;;
44530;SPS30;30240;47.418;0.700;2023-02-11T03:24:48;57.83754;;57.39324;;;;;;;
44530;SPS30;30240;47.418;0.700;2023-02-11T03:27:14;58.3672;;57.378498;;;;;;;
44530;SPS30;30240;47.418;0.700;2023-02-11T03:29:39;58.76327;;58.376057;;;;;;;
44530;SPS30;30240;47.418;0.700;2023-02-11T03:32:05;57.060978;;56.166313;;;;;;;
44530;SPS30;30240;47.418;0.700;2023-02-11T03:34:29;57.060978;;56.166313;;;;;;;
44530;SPS30;30240;47.418;0.700;2023-02-11T03:36:54;56.697784;;56.009228;;;;;;;
44530;SPS30;30240;47.418;0.700;2023-02-11T03:39:19;61.94703;;60.901558;;;;;;;
44530;SPS30;30240;47.418;0.700;2023-02-11T03:41:43;59.782066;;59.024162;;;;;;;
44530;SPS30;30240;47.418;0.700;2023-02-11T03:44:09;56.214542;;55.50057;;;;;;;
44530;SPS30;30240;47.418;0.700;2023-02-11T03:46:35;55.434097;;54.938858;;;;;;;
44530;SPS30;30240;47.418;0.700;2023-02-11T03:49:00;55.434097;;54.938858;;;;;;;
44530;SPS30;30240;47.418;0.700;2023-02-11T03:51:23;54.073257;;53.507446;;;;;;;
44530;SPS30;30240;47.418;0.700;2023-02-11T03:53:48;54.350018;;53.93696;;;;;;;
44530;SPS30;30240;47.418;0.700;2023-02-11T03:56:15;55.65661;;55.371223;;;;;;;
44530;SPS30;30240;47.418;0.700;2023-02-11T03:58:38;53.519794;;53.10798;;;;;;;
44530;SPS30;30240;47.418;0.700;2023-02-11T04:01:04;53.519794;;53.10798;;;;;;;
44530;SPS30;30240;47.418;0.700;2023-02-11T04:03:28;54.0853;;53.36734;;;;;;;
44530;SPS30;30240;47.418;0.700;2023-02-11T04:05:54;53.03061;;52.4564;;;;;;;
44530;SPS30;30240;47.418;0.700;2023-02-11T04:08:19;55.961357;;55.342396;;;;;;;
44530;SPS30;30240;47.418;0.700;2023-02-11T04:10:43;55.77887;;55.225437;;;;;;;
44530;SPS30;30240;47.418;0.700;2023-02-11T04:13:08;55.77887;;55.225437;;;;;;;
44530;SPS30;30240;47.418;0.700;2023-02-11T04:15:33;55.329918;;54.700146;;;;;;;
44530;SPS30;30240;47.418;0.700;2023-02-11T04:17:59;52.3021;;51.892353;;;;;;;
44530;SPS30;30240;47.418;0.700;2023-02-11T04:20:23;53.29158;;52.590446;;;;;;;
44530;SPS30;30240;47.418;0.700;2023-02-11T04:22:49;52.237007;;51.239803;;;;;;;
44530;SPS30;30240;47.418;0.700;2023-02-11T04:25:13;52.237007;;51.239803;;;;;;;
44530;SPS30;30240;47.418;0.700;2023-02-11T04:27:38;48.707203;;48.342445;;;;;;;
44530;SPS30;30240;47.418;0.700;2023-02-11T04:30:04;51.819027;;51.0625;;;;;;;
44530;SPS30;30240;47.418;0.700;2023-02-11T04:32:28;49.011417;;48.668427;;;;;;;
44530;SPS30;30240;47.418;0.700;2023-02-11T04:34:53;47.427727;;46.607925;;;;;;;
44530;SPS30;30240;47.418;0.700;2023-02-11T04:37:18;47.427727;;46.607925;;;;;;;
44530;SPS30;30240;47.418;0.700;2023-02-11T04:39:44;49.893925;;48.958897;;;;;;;
44530;SPS30;30240;47.418;0.700;2023-02-11T04:42:08;47.572994;;47.257385;;;;;;;
44530;SPS30;30240;47.418;0.700;2023-02-11T04:44:33;46.489685;;46.058853;;;;;;;
44530;SPS30;30240;47.418;0.700;2023-02-11T04:46:58;48.028076;;46.982227;;;;;;;
44530;SPS30;30240;47.418;0.700;2023-02-11T04:49:23;48.028076;;46.982227;;;;;;;
44530;SPS30;30240;47.418;0.700;2023-02-11T04:51:48;46.69408;;46.316463;;;;;;;
44530;SPS30;30240;47.418;0.700;2023-02-11T04:54:13;52.291862;;51.21923;;;;;;;
44530;SPS30;30240;47.418;0.700;2023-02-11T04:56:38;50.630512;;50.23337;;;;;;;
44530;SPS30;30240;47.418;0.700;2023-02-11T04:59:04;53.31124;;52.3781;;;;;;;
44530;SPS30;30240;47.418;0.700;2023-02-11T05:01:28;53.31124;;52.3781;;;;;;;
44530;SPS30;30240;47.418;0.700;2023-02-11T05:03:53;53.260773;;52.57812;;;;;;;
44530;SPS30;30240;47.418;0.700;2023-02-11T05:06:18;51.550514;;50.812;;;;;;;
44530;SPS30;30240;47.418;0.700;2023-02-11T05:08:44;52.754993;;52.12268;;;;;;;
44530;SPS30;30240;47.418;0.700;2023-02-11T05:11:11;51.522293;;51.09926;;;;;;;
44530;SPS30;30240;47.418;0.700;2023-02-11T05:13:33;51.522293;;51.09926;;;;;;;
44530;SPS30;30240;47.418;0.700;2023-02-11T05:15:58;50.071644;;49.96861;;;;;;;
44530;SPS30;30240;47.418;0.700;2023-02-11T05:18:23;50.93493;;50.421684;;;;;;;
44530;SPS30;30240;47.418;0.700;2023-02-11T05:20:49;46.01132;;45.422894;;;;;;;
44530;SPS30;30240;47.418;0.700;2023-02-11T05:23:14;43.333267;;42.95476;;;;;;;
44530;SPS30;30240;47.418;0.700;2023-02-11T05:25:38;45.031628;;44.794052;;;;;;;
44530;SPS30;30240;47.418;0.700;2023-02-11T05:28:04;45.031628;;44.794052;;;;;;;
44530;SPS30;30240;47.418;0.700;2023-02-11T05:30:29;45.96442;;45.609955;;;;;;;
44530;SPS30;30240;47.418;0.700;2023-02-11T05:32:53;45.396065;;44.646656;;;;;;;
44530;SPS30;30240;47.418;0.700;2023-02-11T05:35:18;41.490448;;41.125248;;;;;;;
44530;SPS30;30240;47.418;0.700;2023-02-11T05:37:43;40.417328;;40.09408;;;;;;;
44530;SPS30;30240;47.418;0.700;2023-02-11T05:40:09;40.417328;;40.09408;;;;;;;
44530;SPS30;30240;47.418;0.700;2023-02-11T05:42:33;40.968063;;40.750793;;;;;;;
44530;SPS30;30240;47.418;0.700;2023-02-11T05:44:59;38.492805;;38.01364;;;;;;;
44530;SPS30;30240;47.418;0.700;2023-02-11T05:47:23;40.133247;;39.750328;;;;;;;
44530;SPS30;30240;47.418;0.700;2023-02-11T05:49:48;39.001427;;38.615726;;;;;;;
44530;SPS30;30240;47.418;0.700;2023-02-11T05:52:14;39.001427;;38.615726;;;;;;;
44530;SPS30;30240;47.418;0.700;2023-02-11T05:54:38;41.17415;;40.819584;;;;;;;
44530;SPS30;30240;47.418;0.700;2023-02-11T05:57:04;40.131153;;39.574966;;;;;;;
44530;SPS30;30240;47.418;0.700;2023-02-11T05:59:28;40.3283;;40.003975;;;;;;;
44530;SPS30;30240;47.418;0.700;2023-02-11T06:01:53;39.53347;;38.805676;;;;;;;
44530;SPS30;30240;47.418;0.700;2023-02-11T06:04:18;39.53347;;38.805676;;;;;;;
44530;SPS30;30240;47.418;0.700;2023-02-11T06:06:43;39.12483;;38.52667;;;;;;;
44530;SPS30;30240;47.418;0.700;2023-02-11T06:09:09;40.83889;;40.138668;;;;;;;
44530;SPS30;30240;47.418;0.700;2023-02-11T06:11:33;39.20984;;38.84909;;;;;;;
44530;SPS30;30240;47.418;0.700;2023-02-11T06:14:00;40.417465;;40.09859;;;;;;;
44530;SPS30;30240;47.418;0.700;2023-02-11T06:16:23;40.417465;;40.09859;;;;;;;
44530;SPS30;30240;47.418;0.700;2023-02-11T06:18:48;41.431644;;40.6429;;;;;;;
44530;SPS30;30240;47.418;0.700;2023-02-11T06:21:13;39.895756;;39.131226;;;;;;;
44530;SPS30;30240;47.418;0.700;2023-02-11T06:23:38;40.162525;;39.821987;;;;;;;
44530;SPS30;30240;47.418;0.700;2023-02-11T06:26:04;42.16282;;41.423664;;;;;;;
44530;SPS30;30240;47.418;0.700;2023-02-11T06:28:29;42.16282;;41.423664;;;;;;;
44530;SPS30;30240;47.418;0.700;2023-02-11T06:30:53;39.347294;;38.702953;;;;;;;
44530;SPS30;30240;47.418;0.700;2023-02-11T06:33:18;38.366142;;37.8093;;;;;;;
44530;SPS30;30240;47.418;0.700;2023-02-11T06:35:43;38.924637;;38.44818;;;;;;;
44530;SPS30;30240;47.418;0.700;2023-02-11T06:38:08;40.897045;;40.143566;;;;;;;
44530;SPS30;30240;47.418;0.700;2023-02-11T06:40:33;40.897045;;40.143566;;;;;;;
44530;SPS30;30240;47.418;0.700;2023-02-11T06:42:58;43.41391;;42.527996;;;;;;;
44530;SPS30;30240;47.418;0.700;2023-02-11T06:45:23;43.95397;;43.20252;;;;;;;
44530;SPS30;30240;47.418;0.700;2023-02-11T06:47:49;43.18442;;42.385868;;;;;;;
44530;SPS30;30240;47.418;0.700;2023-02-11T06:50:13;41.91079;;41.346016;;;;;;;
44530;SPS30;30240;47.418;0.700;2023-02-11T06:52:39;42.737183;;41.952522;;;;;;;
44530;SPS30;30240;47.418;0.700;2023-02-11T06:55:04;42.737183;;41.952522;;;;;;;
44530;SPS30;30240;47.418;0.700;2023-02-11T06:57:29;39.761852;;38.85791;;;;;;;
44530;SPS30;30240;47.418;0.700;2023-02-11T06:59:53;40.843456;;40.316994;;;;;;;
44530;SPS30;30240;47.418;0.700;2023-02-11T07:02:18;41.444244;;41.070004;;;;;;;
44530;SPS30;30240;47.418;0.700;2023-02-11T07:04:44;42.871025;;42.086395;;;;;;;
44530;SPS30;30240;47.418;0.700;2023-02-11T07:07:08;42.871025;;42.086395;;;;;;;
44530;SPS30;30240;47.418;0.700;2023-02-11T07:09:33;41.539623;;41.04153;;;;;;;
44530;SPS30;30240;47.418;0.700;2023-02-11T07:11:58;40.20829;;39.564873;;;;;;;
44530;SPS30;30240;47.418;0.700;2023-02-11T07:14:23;44.51292;;43.91594;;;;;;;
44530;SPS30;30240;47.418;0.700;2023-02-11T07:16:48;40.226597;;39.619038;;;;;;;
44530;SPS30;30240;47.418;0.700;2023-02-11T07:19:13;40.226597;;39.619038;;;;;;;
44530;SPS30;30240;47.418;0.700;2023-02-11T07:21:38;42.022015;;41.625553;;;;;;;
44530;SPS30;30240;47.418;0.700;2023-02-11T07:24:05;50.836502;;50.217777;;;;;;;
44530;SPS30;30240;47.418;0.700;2023-02-11T07:26:28;47.808674;;47.25792;;;;;;;
44530;SPS30;30240;47.418;0.700;2023-02-11T07:28:53;46.70334;;46.00733;;;;;;;
44530;SPS30;30240;47.418;0.700;2023-02-11T07:31:19;46.70334;;46.00733;;;;;;;
44530;SPS30;30240;47.418;0.700;2023-02-11T07:33:43;45.98081;;45.131607;;;;;;;
44530;SPS30;30240;47.418;0.700;2023-02-11T07:36:09;46.077072;;45.385597;;;;;;;
44530;SPS30;30240;47.418;0.700;2023-02-11T07:38:33;42.32149;;41.94329;;;;;;;
44530;SPS30;30240;47.418;0.700;2023-02-11T07:40:59;40.861485;;40.245464;;;;;;;
44530;SPS30;30240;47.418;0.700;2023-02-11T07:43:23;40.861485;;40.245464;;;;;;;
44530;SPS30;30240;47.418;0.700;2023-02-11T07:45:48;42.563408;;41.874577;;;;;;;
44530;SPS30;30240;47.418;0.700;2023-02-11T07:48:13;39.07216;;38.7329;;;;;;;
44530;SPS30;30240;47.418;0.700;2023-02-11T07:50:38;37.24643;;36.968903;;;;;;;
44530;SPS30;30240;47.418;0.700;2023-02-11T07:53:05;35.909214;;35.490196;;;;;;;
44530;SPS30;30240;47.418;0.700;2023-02-11T07:55:28;35.909214;;35.490196;;;;;;;
44530;SPS30;30240;47.418;0.700;2023-02-11T07:57:53;36.82799;;36.60377;;;;;;;
44530;SPS30;30240;47.418;0.700;2023-02-11T08:00:19;36.648163;;36.304382;;;;;;;
44530;SPS30;30240;47.418;0.700;2023-02-11T08:02:43;38.794724;;37.935528;;;;;;;
44530;SPS30;30240;47.418;0.700;2023-02-11T08:05:08;37.011253;;36.627106;;;;;;;
44530;SPS30;30240;47.418;0.700;2023-02-11T08:07:33;37.011253;;36.627106;;;;;;;
44530;SPS30;30240;47.418;0.700;2023-02-11T08:09:59;37.473717;;36.990868;;;;;;;
44530;SPS30;30240;47.418;0.700;2023-02-11T08:12:23;38.177994;;37.909912;;;;;;;
44530;SPS30;30240;47.418;0.700;2023-02-11T08:14:49;39.398155;;38.787586;;;;;;;
44530;SPS30;30240;47.418;0.700;2023-02-11T08:17:14;39.22696;;38.533436;;;;;;;
44530;SPS30;30240;47.418;0.700;2023-02-11T08:19:38;39.22696;;38.533436;;;;;;;
44530;SPS30;30240;47.418;0.700;2023-02-11T08:22:03;36.909733;;36.589207;;;;;;;
44530;SPS30;30240;47.418;0.700;2023-02-11T08:24:29;36.154522;;35.80435;;;;;;;
44530;SPS30;30240;47.418;0.700;2023-02-11T08:26:54;36.57576;;36.199005;;;;;;;
44530;SPS30;30240;47.418;0.700;2023-02-11T08:29:18;37.83163;;37.40641;;;;;;;
44530;SPS30;30240;47.418;0.700;2023-02-11T08:31:44;35.50412;;34.909756;;;;;;;
44530;SPS30;30240;47.418;0.700;2023-02-11T08:34:09;35.50412;;34.909756;;;;;;;
44530;SPS30;30240;47.418;0.700;2023-02-11T08:36:34;38.117207;;37.479256;;;;;;;
44530;SPS30;30240;47.418;0.700;2023-02-11T08:38:59;34.687923;;34.078686;;;;;;;
44530;SPS30;30240;47.418;0.700;2023-02-11T08:41:24;31.359394;;30.969046;;;;;;;
44530;SPS30;30240;47.418;0.700;2023-02-11T08:43:48;29.564072;;29.132645;;;;;;;
44530;SPS30;30240;47.418;0.700;2023-02-11T08:46:14;29.564072;;29.132645;;;;;;;
44530;SPS30;30240;47.418;0.700;2023-02-11T08:48:39;30.384596;;29.678734;;;;;;;
44530;SPS30;30240;47.418;0.700;2023-02-11T08:51:04;30.098381;;29.893345;;;;;;;
44530;SPS30;30240;47.418;0.700;2023-02-11T08:53:28;25.884754;;25.618052;;;;;;;
44530;SPS30;30240;47.418;0.700;2023-02-11T08:55:54;26.852047;;26.63801;;;;;;;
44530;SPS30;30240;47.418;0.700;2023-02-11T08:58:19;26.852047;;26.63801;;;;;;;
44530;SPS30;30240;47.418;0.700;2023-02-11T09:00:44;25.168839;;25.144432;;;;;;;
44530;SPS30;30240;47.418;0.700;2023-02-11T09:03:08;27.165886;;26.658699;;;;;;;
44530;SPS30;30240;47.418;0.700;2023-02-11T09:05:33;25.962963;;25.700645;;;;;;;
44530;SPS30;30240;47.418;0.700;2023-02-11T09:07:58;24.243109;;23.98605;;;;;;;
44530;SPS30;30240;47.418;0.700;2023-02-11T09:10:23;24.243109;;23.98605;;;;;;;
44530;SPS30;30240;47.418;0.700;2023-02-11T09:12:48;25.872797;;25.495802;;;;;;;
44530;SPS30;30240;47.418;0.700;2023-02-11T09:15:14;24.579235;;24.361729;;;;;;;
44530;SPS30;30240;47.418;0.700;2023-02-11T09:17:39;23.96792;;23.638327;;;;;;;
44530;SPS30;30240;47.418;0.700;2023-02-11T09:20:04;25.019377;;24.467001;;;;;;;
44530;SPS30;30240;47.418;0.700;2023-02-11T09:22:28;25.019377;;24.467001;;;;;;;
44530;SPS30;30240;47.418;0.700;2023-02-11T09:24:53;25.619547;;25.336851;;;;;;;
44530;SPS30;30240;47.418;0.700;2023-02-11T09:27:18;24.035624;;23.869102;;;;;;;
44530;SPS30;30240;47.418;0.700;2023-02-11T09:29:43;25.647608;;25.386658;;;;;;;
44530;SPS30;30240;47.418;0.700;2023-02-11T09:32:08;24.493145;;24.192781;;;;;;;
44530;SPS30;30240;47.418;0.700;2023-02-11T09:34:34;24.493145;;24.192781;;;;;;;
44530;SPS30;30240;47.418;0.700;2023-02-11T09:36:58;25.63799;;25.378431;;;;;;;
44530;SPS30;30240;47.418;0.700;2023-02-11T09:39:23;23.695341;;23.522486;;;;;;;
44530;SPS30;30240;47.418;0.700;2023-02-11T09:42:04;23.945972;;23.592861;;;;;;;
44530;SPS30;30240;47.418;0.700;2023-02-11T09:44:16;23.179474;;23.076908;;;;;;;
44530;SPS30;30240;47.418;0.700;2023-02-11T09:46:40;23.179474;;23.076908;;;;;;;
44530;SPS30;30240;47.418;0.700;2023-02-11T09:49:04;23.146248;;22.73574;;;;;;;
44530;SPS30;30240;47.418;0.700;2023-02-11T09:51:32;23.511133;;23.226757;;;;;;;
44530;SPS30;30240;47.418;0.700;2023-02-11T09:53:55;20.425814;;20.230715;;;;;;;
44530;SPS30;30240;47.418;0.700;2023-02-11T09:56:18;23.854;;23.560774;;;;;;;
44530;SPS30;30240;47.418;0.700;2023-02-11T09:58:44;21.892117;;21.683056;;;;;;;
44530;SPS30;30240;47.418;0.700;2023-02-11T10:01:12;21.892117;;21.683056;;;;;;;
44530;SPS30;30240;47.418;0.700;2023-02-11T10:03:39;21.836237;;21.519522;;;;;;;
44530;SPS30;30240;47.418;0.700;2023-02-11T10:03:46;21.836237;;21.519522;;;;;;;
44530;SPS30;30240;47.418;0.700;2023-02-11T10:06:04;21.024214;;20.762863;;;;;;;
44530;SPS30;30240;47.418;0.700;2023-02-11T10:08:26;21.670658;;21.54128;;;;;;;
44530;SPS30;30240;47.418;0.700;2023-02-11T10:10:49;20.349594;;20.186016;;;;;;;
44530;SPS30;30240;47.418;0.700;2023-02-11T10:13:28;20.349594;;20.186016;;;;;;;
44530;SPS30;30240;47.418;0.700;2023-02-11T10:15:41;18.753897;;18.692444;;;;;;;
44530;SPS30;30240;47.418;0.700;2023-02-11T10:18:07;21.125328;;20.812609;;;;;;;
44530;SPS30;30240;47.418;0.700;2023-02-11T10:18:15;21.125328;;20.812609;;;;;;;
44530;SPS30;30240;47.418;0.700;2023-02-11T10:18:27;21.125328;;20.812609;;;;;;;
44530;SPS30;30240;47.418;0.700;2023-02-11T10:18:33;21.125328;;20.812609;;;;;;;
44530;SPS30;30240;47.418;0.700;2023-02-11T10:20:30;21.530037;;21.237892;;;;;;;
44530;SPS30;30240;47.418;0.700;2023-02-11T10:22:54;20.241055;;20.052183;;;;;;;
44530;SPS30;30240;47.418;0.700;2023-02-11T10:25:21;20.241055;;20.052183;;;;;;;
44530;SPS30;30240;47.418;0.700;2023-02-11T10:27:44;21.035793;;20.874916;;;;;;;
44530;SPS30;30240;47.418;0.700;2023-02-11T10:30:13;20.67431;;20.558441;;;;;;;
44530;SPS30;30240;47.418;0.700;2023-02-11T10:32:34;19.371546;;19.160631;;;;;;;
44530;SPS30;30240;47.418;0.700;2023-02-11T10:34:59;18.667742;;18.441889;;;;;;;
44530;SPS30;30240;47.418;0.700;2023-02-11T10:37:23;18.667742;;18.441889;;;;;;;
44530;SPS30;30240;47.418;0.700;2023-02-11T10:39:49;18.502594;;18.361036;;;;;;;
44530;SPS30;30240;47.418;0.700;2023-02-11T10:42:13;19.381977;;19.237053;;;;;;;
44530;SPS30;30240;47.418;0.700;2023-02-11T10:44:40;18.584093;;18.423954;;;;;;;
44530;SPS30;30240;47.418;0.700;2023-02-11T10:47:04;18.407627;;18.329098;;;;;;;
44530;SPS30;30240;47.418;0.700;2023-02-11T10:49:34;18.407627;;18.329098;;;;;;;
44530;SPS30;30240;47.418;0.700;2023-02-11T10:51:58;19.140665;;18.878029;;;;;;;
44530;SPS30;30240;47.418;0.700;2023-02-11T10:52:11;19.140665;;18.878029;;;;;;;
44530;SPS30;30240;47.418;0.700;2023-02-11T10:54:18;17.318987;;17.317825;;;;;;;
44530;SPS30;30240;47.418;0.700;2023-02-11T10:56:44;17.351313;;17.20186;;;;;;;
44530;SPS30;30240;47.418;0.700;2023-02-11T10:59:13;18.017267;;18.009024;;;;;;;
44530;SPS30;30240;47.418;0.700;2023-02-11T11:01:38;18.017267;;18.009024;;;;;;;
44530;SPS30;30240;47.418;0.700;2023-02-11T11:03:59;17.724699;;17.603178;;;;;;;
44530;SPS30;30240;47.418;0.700;2023-02-11T11:06:28;15.473942;;15.402537;;;;;;;
44530;SPS30;30240;47.418;0.700;2023-02-11T11:08:49;17.427671;;17.321829;;;;;;;
44530;SPS30;30240;47.418;0.700;2023-02-11T11:11:14;17.295946;;17.171803;;;;;;;
44530;SPS30;30240;47.418;0.700;2023-02-11T11:13:39;17.295946;;17.171803;;;;;;;
44530;SPS30;30240;47.418;0.700;2023-02-11T11:16:08;17.704033;;17.503159;;;;;;;
44530;SPS30;30240;47.418;0.700;2023-02-11T11:18:28;15.0819645;;15.041416;;;;;;;
44530;SPS30;30240;47.418;0.700;2023-02-11T11:20:54;15.409166;;15.303229;;;;;;;
44530;SPS30;30240;47.418;0.700;2023-02-11T11:23:19;14.838124;;14.809581;;;;;;;
44530;SPS30;30240;47.418;0.700;2023-02-11T11:25:44;14.838124;;14.809581;;;;;;;
44530;SPS30;30240;47.418;0.700;2023-02-11T11:28:18;11.785783;;11.785783;;;;;;;
44530;SPS30;30240;47.418;0.700;2023-02-11T11:30:38;12.208111;;12.0844345;;;;;;;
44530;SPS30;30240;47.418;0.700;2023-02-11T11:32:59;11.483219;;11.301308;;;;;;;
44530;SPS30;30240;47.418;0.700;2023-02-11T11:35:24;11.803523;;11.614658;;;;;;;
44530;SPS30;30240;47.418;0.700;2023-02-11T11:37:51;13.389178;;13.177153;;;;;;;
44530;SPS30;30240;47.418;0.700;2023-02-11T11:40:21;13.389178;;13.177153;;;;;;;